createdAt,value
2019-05-23T00:00:43.010Z,19.00
2019-05-23T00:03:14.833Z,20.75
2019-05-23T00:06:02.749Z,19.75
2019-05-23T00:08:37.645Z,21.75
2019-05-23T00:11:33.994Z,20.25
2019-05-23T00:14:18.441Z,19.25
2019-05-23T00:16:48.749Z,19.00
2019-05-23T00:19:18.874Z,20.25
2019-05-23T00:21:50.391Z,17.75
2019-05-23T00:24:22.340Z,18.25
2019-05-23T00:26:54.720Z,18.25
2019-05-23T00:29:26.074Z,18.25
2019-05-23T00:32:01.021Z,19.75
2019-05-23T00:34:34.415Z,18.00
2019-05-23T00:37:07.278Z,20.75
2019-05-23T00:39:38.676Z,18.75
2019-05-23T00:42:09.092Z,19.00
2019-05-23T00:44:42.323Z,21.00
2019-05-23T00:47:13.733Z,16.25
2019-05-23T00:49:43.769Z,17.25
2019-05-23T00:52:15.700Z,17.75
2019-05-23T00:54:47.347Z,18.25
2019-05-23T00:57:17.440Z,17.75
2019-05-23T00:59:47.700Z,17.75
2019-05-23T01:02:17.092Z,17.25
2019-05-23T01:04:47.792Z,22.25
2019-05-23T01:07:17.100Z,18.25
2019-05-23T01:09:46.259Z,17.25
2019-05-23T01:12:15.866Z,15.25
2019-05-23T01:14:45.548Z,18.25
2019-05-23T01:17:17.129Z,17.75
2019-05-23T01:19:47.135Z,22.25
2019-05-23T01:22:18.805Z,20.25
2019-05-23T01:24:51.577Z,19.75
2019-05-23T01:27:20.770Z,18.25
2019-05-23T01:29:51.726Z,18.75
2019-05-23T01:32:37.683Z,22.75
2019-05-23T01:35:09.033Z,19.25
2019-05-23T01:37:39.556Z,18.25
2019-05-23T01:40:09.794Z,17.75
2019-05-23T01:42:40.174Z,23.75
2019-05-23T01:45:14.210Z,19.75
2019-05-23T01:47:43.882Z,20.00
2019-05-23T01:50:14.147Z,23.50
2019-05-23T01:52:43.325Z,20.00
2019-05-23T01:55:12.951Z,25.50
2019-05-23T01:57:42.681Z,23.00
2019-05-23T02:00:15.570Z,25.50
2019-05-23T02:02:44.944Z,20.50
2019-05-23T02:05:16.785Z,22.00
2019-05-23T02:07:46.436Z,18.25
2019-05-23T02:10:17.605Z,23.75
2019-05-23T02:12:47.629Z,20.25
2019-05-23T02:15:18.222Z,20.75
2019-05-23T02:17:47.420Z,24.25
2019-05-23T02:20:19.088Z,23.25
2019-05-23T02:22:49.251Z,22.75
2019-05-23T02:25:22.928Z,24.25
2019-05-23T02:27:53.496Z,21.75
2019-05-23T02:30:33.846Z,23.75
2019-05-23T02:32:57.284Z,22.25
2019-05-23T02:35:27.006Z,23.25
2019-05-23T02:38:21.905Z,24.25
2019-05-23T02:41:02.429Z,21.75
2019-05-23T02:43:34.853Z,21.75
2019-05-23T02:46:09.302Z,24.00
2019-05-23T02:48:43.157Z,25.00
2019-05-23T02:51:23.804Z,26.00
2019-05-23T02:53:55.901Z,23.00
2019-05-23T02:56:29.497Z,25.00
2019-05-23T02:59:33.443Z,29.50
2019-05-23T03:02:49.083Z,22.50
2019-05-23T03:05:25.006Z,22.00
2019-05-23T03:07:54.305Z,23.00
2019-05-23T03:10:24.339Z,24.50
2019-05-23T03:12:55.787Z,25.50
2019-05-23T03:15:32.124Z,23.00
2019-05-23T03:18:08.185Z,23.00
2019-05-23T03:20:39.206Z,27.50
2019-05-23T03:23:17.652Z,27.25
2019-05-23T03:26:36.477Z,25.00
2019-05-23T03:29:08.624Z,24.50
2019-05-23T03:31:46.695Z,27.50
2019-05-23T03:34:20.354Z,26.50
2019-05-23T03:36:51.260Z,27.50
2019-05-23T03:39:20.758Z,30.00
2019-05-23T03:41:51.687Z,26.50
2019-05-23T03:44:20.809Z,24.00
2019-05-23T03:46:52.772Z,30.00
2019-05-23T03:49:21.940Z,24.50
2019-05-23T03:51:51.101Z,26.00
2019-05-23T03:54:20.982Z,26.00
2019-05-23T03:56:52.423Z,30.00
2019-05-23T03:59:22.552Z,27.25
2019-05-23T04:01:54.789Z,27.75
2019-05-23T04:04:24.655Z,30.25
2019-05-23T04:06:54.946Z,28.00
2019-05-23T04:09:24.292Z,27.75
2019-05-23T04:11:53.553Z,29.25
2019-05-23T04:14:23.103Z,27.25
2019-05-23T04:16:54.034Z,27.25
2019-05-23T04:19:23.531Z,27.25
2019-05-23T04:21:53.490Z,27.75
2019-05-23T04:24:24.167Z,27.25
2019-05-23T04:26:53.762Z,31.75
2019-05-23T04:29:23.130Z,31.50
2019-05-23T04:32:07.161Z,27.00
2019-05-23T04:34:26.857Z,28.00
2019-05-23T04:36:59.216Z,26.00
2019-05-23T04:39:30.682Z,30.50
2019-05-23T04:41:59.925Z,32.50
2019-05-23T04:44:29.696Z,28.50
2019-05-23T04:47:00.404Z,30.50
2019-05-23T04:49:31.346Z,29.50
2019-05-23T04:52:02.599Z,32.75
2019-05-23T04:54:32.655Z,31.00
2019-05-23T04:57:06.448Z,28.50
2019-05-23T04:59:36.426Z,29.25
2019-05-23T05:02:24.757Z,29.50
2019-05-23T05:04:40.673Z,29.75
2019-05-23T05:07:12.914Z,36.25
2019-05-23T05:09:44.493Z,27.25
2019-05-23T05:12:18.482Z,32.75
2019-05-23T05:14:49.132Z,33.25
2019-05-23T05:17:18.888Z,34.00
2019-05-23T05:19:48.267Z,32.00
2019-05-23T05:22:18.479Z,34.00
2019-05-23T05:24:49.169Z,35.50
2019-05-23T05:27:19.608Z,32.00
2019-05-23T05:29:50.319Z,35.75
